Time;durP1;ratioP1;P1;durP2;ratioP2;P2;SDS_P1;SDS_P2;PMS_P1;PMS_P2;Temp;Humidity;BMP_temperature;BMP_pressure;BME280_temperature;BME280_humidity;BME280_pressure;Samples;Min_cycle;Max_cycle;Signal;HPM_P1;HPM_P2
2022/09/04 00:00:17;;;;;;;3.10;2.53;;;;;;;26.82;28.71;98482.97;5082622;28;20123;-78
2022/09/04 00:03:09;;;;;;;3.13;2.72;;;;;;;27.29;28.35;98492.53;5084901;28;20047;-78
2022/09/04 00:05:39;;;;;;;2.78;2.42;;;;;;;27.85;27.35;98487.28;5088618;28;20024;-78
2022/09/04 00:08:23;;;;;;;3.63;2.40;;;;;;;27.81;27.06;98492.25;5086759;28;20052;-77
2022/09/04 00:10:59;;;;;;;2.75;2.15;;;;;;;28.08;26.95;98489.03;5084547;28;20051;-77
2022/09/04 00:13:56;;;;;;;2.70;2.42;;;;;;;28.48;26.37;98481.63;5083272;28;20052;-78
2022/09/04 00:16:31;;;;;;;2.53;2.15;;;;;;;28.59;26.16;98490.59;5083650;28;20029;-78
2022/09/04 00:19:42;;;;;;;2.92;2.60;;;;;;;28.53;26.13;98490.34;5087642;28;20035;-78
2022/09/04 00:22:34;;;;;;;3.83;2.80;;;;;;;28.46;26.21;98498.25;5087290;28;20032;-78
2022/09/04 00:25:31;;;;;;;3.13;2.80;;;;;;;28.45;26.17;98502.34;5081407;28;20518;-77
2022/09/04 00:28:24;;;;;;;2.53;2.05;;;;;;;28.83;25.55;98500.25;5087575;28;20062;-78
2022/09/04 00:30:58;;;;;;;3.05;2.08;;;;;;;29.70;24.21;98489.00;5075392;28;20111;-78
2022/09/04 00:33:40;;;;;;;4.65;2.70;;;;;;;29.01;25.03;98482.69;5089916;28;20375;-78
2022/09/04 00:36:07;;;;;;;2.30;2.05;;;;;;;29.00;24.72;98476.22;5085665;28;20028;-78
2022/09/04 00:38:40;;;;;;;2.55;2.17;;;;;;;29.58;24.39;98487.03;5083128;28;20032;-78
2022/09/04 00:41:36;;;;;;;2.92;2.38;;;;;;;29.21;24.64;98486.00;5082310;28;20171;-78
2022/09/04 00:44:34;;;;;;;2.33;2.05;;;;;;;28.65;25.28;98498.03;5083279;28;20311;-78
2022/09/04 00:47:24;;;;;;;1.92;1.58;;;;;;;28.84;25.10;98487.69;5082499;28;20064;-77
2022/09/04 00:50:10;;;;;;;1.92;1.80;;;;;;;28.08;26.05;98492.63;5080387;28;20044;-78
2022/09/04 00:53:02;;;;;;;1.95;1.83;;;;;;;27.35;27.29;98494.38;5080291;28;20084;-78
2022/09/04 00:55:41;;;;;;;2.50;1.80;;;;;;;28.37;25.63;98506.63;5082065;28;20039;-77
2022/09/04 00:58:25;;;;;;;2.03;1.83;;;;;;;29.11;24.76;98502.06;5081461;28;20032;-78
2022/09/04 01:00:56;;;;;;;1.95;1.75;;;;;;;29.13;24.89;98496.75;5080090;28;20039;-77
2022/09/04 01:03:33;;;;;;;1.73;1.42;;;;;;;29.33;24.40;98502.94;5076115;28;20453;-78
2022/09/04 01:06:24;;;;;;;1.63;1.52;;;;;;;29.67;24.05;98499.22;5081326;28;20021;-78
2022/09/04 01:09:17;;;;;;;4.00;1.73;;;;;;;29.91;23.70;98491.03;5078443;28;20028;-78
2022/09/04 01:12:13;;;;;;;2.85;1.52;;;;;;;29.99;23.58;98495.97;5080388;28;20135;-78
2022/09/04 01:14:54;;;;;;;1.67;1.58;;;;;;;29.89;23.46;98497.19;5070070;28;20047;-78
2022/09/04 01:17:39;;;;;;;3.58;1.75;;;;;;;29.73;24.04;98496.59;5083574;28;20085;-78
2022/09/04 01:20:27;;;;;;;2.08;1.50;;;;;;;29.14;24.66;98487.03;5080719;28;20028;-77
2022/09/04 01:23:20;;;;;;;1.95;1.60;;;;;;;29.32;24.17;98486.38;5081439;28;20071;-78
2022/09/04 01:26:14;;;;;;;1.67;1.40;;;;;;;29.60;24.04;98490.19;5082391;28;20031;-78
2022/09/04 01:28:49;;;;;;;2.40;1.80;;;;;;;29.51;24.38;98487.31;5084982;28;20402;-77
2022/09/04 01:31:54;;;;;;;2.10;1.70;;;;;;;29.42;24.15;98485.22;5086447;28;20064;-78
2022/09/04 01:34:58;;;;;;;1.70;1.60;;;;;;;29.83;23.76;98489.72;5082561;28;20037;-78
2022/09/04 01:37:57;;;;;;;3.33;1.60;;;;;;;29.80;23.76;98490.69;5079520;28;20035;-77
2022/09/04 01:40:37;;;;;;;2.20;2.00;;;;;;;29.59;23.77;98505.63;5082558;28;20391;-77
2022/09/04 01:43:12;;;;;;;2.03;1.80;;;;;;;29.78;23.69;98499.63;5080536;28;20514;-78
2022/09/04 01:46:06;;;;;;;1.55;1.45;;;;;;;29.13;24.61;98499.56;5078376;28;20391;-78
2022/09/04 01:48:46;;;;;;;3.03;1.90;;;;;;;29.53;24.03;98505.41;5084147;28;20032;-78
2022/09/04 01:51:31;;;;;;;1.30;1.20;;;;;;;29.95;23.21;98509.47;5085974;28;20396;-78
2022/09/04 01:54:21;;;;;;;1.52;1.42;;;;;;;30.10;23.36;98504.03;5084064;28;20039;-78
2022/09/04 01:57:01;;;;;;;1.58;1.48;;;;;;;29.61;24.14;98506.72;5080975;28;20036;-78
2022/09/04 01:59:53;;;;;;;1.85;1.67;;;;;;;29.17;24.41;98507.94;5083191;28;20028;-78
2022/09/04 02:02:30;;;;;;;2.30;1.60;;;;;;;28.82;24.90;98497.88;5081635;28;20415;-78
2022/09/04 02:04:59;;;;;;;2.60;2.40;;;;;;;27.10;27.28;98516.81;5082006;28;20050;-78
2022/09/04 02:07:48;;;;;;;2.50;2.30;;;;;;;27.92;26.63;98516.09;5082749;28;20036;-78
2022/09/04 02:10:21;;;;;;;2.13;1.83;;;;;;;28.69;25.22;98509.22;5084115;28;20043;-78
2022/09/04 02:13:15;;;;;;;2.80;2.53;;;;;;;26.61;28.22;98504.81;5085880;28;20040;-78
2022/09/04 02:16:05;;;;;;;2.28;2.08;;;;;;;27.58;26.95;98504.63;5087116;28;20043;-78
2022/09/04 02:18:49;;;;;;;1.88;1.75;;;;;;;27.99;26.33;98503.81;5085040;28;20040;-77
2022/09/04 02:21:31;;;;;;;2.30;2.10;;;;;;;27.68;26.48;98497.09;5087814;28;20123;-77
2022/09/04 02:24:14;;;;;;;3.58;2.25;;;;;;;27.24;27.07;98496.69;5091282;28;20032;-78
2022/09/04 02:27:03;;;;;;;3.38;2.00;;;;;;;27.47;26.88;98497.72;5088753;28;20052;-78
2022/09/04 02:29:40;;;;;;;3.13;2.17;;;;;;;28.02;26.39;98488.78;5087472;28;20032;-78
2022/09/04 02:32:27;;;;;;;2.03;1.83;;;;;;;28.36;25.88;98485.25;5084978;28;20034;-78
2022/09/04 02:35:12;;;;;;;2.15;1.95;;;;;;;27.96;26.08;98485.69;5087197;28;20128;-78
2022/09/04 02:38:00;;;;;;;2.08;1.73;;;;;;;28.15;26.15;98491.59;5089954;28;22520;-78
2022/09/04 02:40:50;;;;;;;2.30;2.10;;;;;;;27.76;26.67;98493.59;5088566;28;20028;-78
2022/09/04 02:43:41;;;;;;;2.60;2.13;;;;;;;28.79;25.03;98485.44;5087626;28;20036;-77
2022/09/04 02:46:30;;;;;;;2.15;1.95;;;;;;;29.50;23.80;98485.75;5083955;28;20483;-77
2022/09/04 02:49:26;;;;;;;1.50;1.40;;;;;;;30.02;23.36;98488.56;5088790;28;20040;-77
2022/09/04 02:52:17;;;;;;;2.05;1.50;;;;;;;30.40;22.60;98497.59;5087329;28;20067;-78
2022/09/04 02:55:02;;;;;;;1.88;1.33;;;;;;;30.66;22.41;98493.25;5086486;28;20063;-78
2022/09/04 02:57:55;;;;;;;1.83;1.20;;;;;;;30.26;23.27;98489.63;5087746;28;20038;-78
2022/09/04 03:00:38;;;;;;;1.73;1.52;;;;;;;30.06;23.38;98481.50;5083341;28;20060;-78
2022/09/04 03:03:28;;;;;;;1.40;1.30;;;;;;;29.98;23.28;98488.72;5083041;28;20051;-78
2022/09/04 03:06:39;;;;;;;1.42;1.30;;;;;;;30.00;22.84;98491.09;5084031;28;20045;-78
2022/09/04 03:09:13;;;;;;;1.50;1.38;;;;;;;29.94;23.15;98488.06;5008869;28;20497;-78
2022/09/04 03:12:02;;;;;;;1.92;1.65;;;;;;;29.43;23.77;98478.28;5076052;28;20056;-77
2022/09/04 03:14:38;;;;;;;1.50;1.40;;;;;;;28.91;24.18;98481.00;5082873;28;20116;-77
2022/09/04 03:17:31;;;;;;;1.48;1.38;;;;;;;27.86;25.72;98489.66;5086971;28;20467;-77
2022/09/04 03:20:25;;;;;;;2.05;1.52;;;;;;;27.54;26.07;98481.34;5085338;28;20040;-77
2022/09/04 03:23:24;;;;;;;1.70;1.40;;;;;;;28.28;25.15;98489.59;5082788;28;20055;-77
2022/09/04 03:26:06;;;;;;;1.75;1.65;;;;;;;28.63;24.63;98474.31;5070001;28;20043;-77
2022/09/04 03:28:57;;;;;;;2.00;1.38;;;;;;;29.09;23.63;98489.63;5081731;28;20070;-77
2022/09/04 03:31:48;;;;;;;2.08;1.48;;;;;;;29.31;23.16;98474.28;5084258;28;20050;-77
2022/09/04 03:34:17;;;;;;;2.25;1.65;;;;;;;29.63;22.81;98480.78;5085495;28;20041;-77
2022/09/04 03:37:08;;;;;;;1.40;1.30;;;;;;;29.16;23.32;98484.53;5083494;28;20036;-78
2022/09/04 03:40:04;;;;;;;1.23;1.13;;;;;;;29.26;23.13;98483.38;5083153;28;20039;-77
2022/09/04 03:42:51;;;;;;;1.60;1.33;;;;;;;29.62;22.63;98488.47;5087092;28;20591;-78
2022/09/04 03:45:47;;;;;;;1.27;1.17;;;;;;;29.84;22.26;98500.63;5087233;28;20760;-78
2022/09/04 03:48:44;;;;;;;1.25;1.15;;;;;;;29.85;22.40;98498.56;5084123;28;20032;-78
2022/09/04 03:51:47;;;;;;;1.85;1.73;;;;;;;28.54;24.09;98500.38;5082539;28;20055;-78
2022/09/04 03:54:34;;;;;;;1.48;1.27;;;;;;;28.71;24.08;98499.03;5084434;28;20040;-78
2022/09/04 03:57:34;;;;;;;1.30;1.17;;;;;;;28.80;23.71;98489.84;5082391;28;20020;-78
2022/09/04 04:00:09;;;;;;;1.50;1.40;;;;;;;28.64;23.93;98490.00;5086744;28;20039;-77
2022/09/04 04:03:01;;;;;;;1.65;1.55;;;;;;;27.82;24.91;98499.50;5084472;28;20066;-77
2022/09/04 04:05:55;;;;;;;1.95;1.50;;;;;;;27.45;25.94;98500.16;5085983;28;20027;-77
2022/09/04 04:08:56;;;;;;;1.80;1.70;;;;;;;26.70;26.51;98504.19;5085898;28;20123;-77
2022/09/04 04:11:36;;;;;;;1.90;1.70;;;;;;;26.97;26.50;98501.91;5080763;28;20044;-78
2022/09/04 04:14:39;;;;;;;2.13;1.70;;;;;;;27.42;25.82;98495.44;5088823;28;20120;-78
2022/09/04 04:17:24;;;;;;;1.63;1.40;;;;;;;28.16;24.98;98508.09;5085236;28;20024;-77
2022/09/04 04:20:06;;;;;;;1.60;1.50;;;;;;;28.60;24.30;98509.91;5083125;28;20554;-77
2022/09/04 04:23:16;;;;;;;1.50;1.40;;;;;;;28.94;23.92;98503.47;5084993;28;20399;-77
2022/09/04 04:25:57;;;;;;;1.60;1.50;;;;;;;29.01;23.91;98506.06;5083260;28;20044;-77
2022/09/04 04:28:58;;;;;;;1.40;1.30;;;;;;;29.36;23.38;98507.66;5085587;28;20032;-78
2022/09/04 04:32:12;;;;;;;1.63;1.52;;;;;;;29.73;22.95;98514.38;5083570;28;20032;-78
2022/09/04 04:35:01;;;;;;;1.80;1.70;;;;;;;29.83;22.98;98527.34;5084868;28;20039;-78
2022/09/04 04:38:06;;;;;;;2.85;2.20;;;;;;;29.82;23.10;98530.63;5087135;28;20035;-78
2022/09/04 04:40:50;;;;;;;2.08;1.58;;;;;;;30.20;23.12;98530.38;5085176;28;20028;-78
2022/09/04 04:43:47;;;;;;;1.50;1.38;;;;;;;30.77;22.74;98538.94;5081129;28;20039;-78
2022/09/04 04:46:45;;;;;;;1.63;1.50;;;;;;;31.21;22.33;98533.03;5080400;28;20031;-78
2022/09/04 04:49:57;;;;;;;1.73;1.60;;;;;;;29.91;23.58;98539.19;5084345;28;20038;-79
2022/09/04 04:52:52;;;;;;;1.98;1.85;;;;;;;29.25;24.70;98531.91;5072986;28;20044;-78
2022/09/04 04:55:37;;;;;;;2.00;1.90;;;;;;;29.39;24.65;98537.84;5087104;28;20033;-77
2022/09/04 04:58:24;;;;;;;2.03;1.83;;;;;;;29.55;24.90;98539.69;5083279;28;20040;-78
2022/09/04 05:01:28;;;;;;;2.22;1.98;;;;;;;28.75;25.68;98544.91;5086740;28;20124;-77
2022/09/04 05:04:12;;;;;;;2.60;2.08;;;;;;;28.98;25.75;98549.41;5084100;28;20609;-78
2022/09/04 05:06:55;;;;;;;2.15;1.95;;;;;;;29.67;25.50;98555.81;5080395;28;20908;-78
2022/09/04 05:09:57;;;;;;;1.90;1.80;;;;;;;29.79;25.67;98555.00;5085225;28;20064;-78
2022/09/04 05:12:53;;;;;;;2.05;1.90;;;;;;;30.18;25.07;98547.81;5077629;28;20506;-78
2022/09/04 05:15:50;;;;;;;2.45;1.67;;;;;;;30.06;25.16;98557.97;5089528;28;20032;-78
2022/09/04 05:18:35;;;;;;;2.15;1.60;;;;;;;30.40;25.25;98556.28;5084048;28;20024;-79
2022/09/04 05:21:08;;;;;;;1.98;1.60;;;;;;;30.09;25.52;98556.28;5089978;28;20450;-79
2022/09/04 05:24:00;;;;;;;2.28;2.08;;;;;;;30.32;25.22;98555.75;5092467;28;20036;-78
2022/09/04 05:27:06;;;;;;;2.63;1.90;;;;;;;30.81;24.65;98560.69;5086619;28;20024;-79
2022/09/04 05:29:36;;;;;;;2.03;1.83;;;;;;;31.32;24.69;98561.75;5077848;28;20032;-78
2022/09/04 05:32:22;;;;;;;2.00;1.90;;;;;;;30.12;25.36;98560.22;5090051;28;20028;-79
2022/09/04 05:35:12;;;;;;;3.03;2.10;;;;;;;29.73;25.73;98570.97;5090689;28;20127;-79
2022/09/04 05:38:10;;;;;;;2.22;2.03;;;;;;;30.10;25.81;98560.69;5091519;28;20496;-79
2022/09/04 05:40:47;;;;;;;2.97;2.22;;;;;;;30.51;24.96;98563.09;5081176;28;20135;-79
2022/09/04 05:43:31;;;;;;;4.38;2.75;;;;;;;30.39;25.23;98572.50;5092087;28;20031;-79
2022/09/04 05:46:25;;;;;;;3.33;2.50;;;;;;;30.85;24.60;98569.84;5079329;28;20696;-78
2022/09/04 05:49:02;;;;;;;3.53;2.42;;;;;;;30.29;25.18;98585.03;5082137;28;20392;-79
2022/09/04 05:51:39;;;;;;;2.58;2.17;;;;;;;30.13;25.12;98588.06;5084315;28;20595;-79
2022/09/04 05:54:32;;;;;;;2.80;2.60;;;;;;;29.72;25.50;98594.88;5081321;28;20028;-79
2022/09/04 05:57:04;;;;;;;2.65;2.45;;;;;;;28.75;27.04;98601.44;5084393;28;20028;-78
2022/09/04 06:00:05;;;;;;;2.63;2.25;;;;;;;27.72;28.34;98597.31;5089195;28;20495;-78
2022/09/04 06:02:31;;;;;;;;;;;;;;;26.84;30.01;98604.50;5082858;28;20040;-78
2022/09/04 06:05:20;;;;;;;3.83;3.42;;;;;;;25.05;32.54;98605.00;5084867;28;19912;-78
2022/09/04 06:08:20;;;;;;;5.07;2.80;;;;;;;25.53;32.30;98606.56;5086534;28;20084;-79
2022/09/04 06:11:35;;;;;;;4.22;3.75;;;;;;;25.31;32.46;98601.31;5087056;28;20036;-78
2022/09/04 06:14:23;;;;;;;4.63;4.13;;;;;;;26.31;30.95;98589.63;5085849;28;20036;-78
2022/09/04 06:16:52;;;;;;;4.80;4.18;;;;;;;25.69;31.92;98598.19;5083883;28;20029;-78
2022/09/04 06:19:41;;;;;;;4.82;3.80;;;;;;;25.47;32.33;98597.03;5089515;28;20508;-79
2022/09/04 06:22:49;;;;;;;3.33;3.03;;;;;;;25.98;31.54;98599.19;5086249;28;20043;-78
2022/09/04 06:25:16;;;;;;;3.60;3.00;;;;;;;26.58;30.63;98607.09;5023141;28;20037;-79
2022/09/04 06:28:17;;;;;;;4.63;3.40;;;;;;;27.58;28.88;98609.00;5075129;28;20105;-79
2022/09/04 06:31:25;;;;;;;2.25;2.05;;;;;;;28.73;27.48;98615.22;5090797;28;20063;-79
2022/09/04 06:34:03;;;;;;;3.13;2.75;;;;;;;29.54;26.20;98622.22;5090663;28;20034;-79
2022/09/04 06:36:44;;;;;;;3.05;2.80;;;;;;;28.30;28.13;98623.44;5084198;28;20567;-79
2022/09/04 06:39:29;;;;;;;;;;;;;;;26.98;29.86;98618.25;5084498;28;20063;-79
2022/09/04 06:42:36;;;;;;;4.85;3.92;;;;;;;26.55;30.64;98624.09;5083286;28;19920;-79
2022/09/04 06:45:14;;;;;;;3.95;3.53;;;;;;;25.00;33.22;98627.94;5075357;28;20044;-78
2022/09/04 06:47:46;;;;;;;5.85;4.75;;;;;;;24.66;33.47;98635.72;5085791;28;20032;-78
2022/09/04 06:50:23;;;;;;;6.85;5.53;;;;;;;24.22;34.64;98638.78;5086795;28;20121;-78
2022/09/04 06:53:08;;;;;;;5.93;4.63;;;;;;;24.14;34.98;98637.25;5090330;28;20047;-78
2022/09/04 06:55:49;;;;;;;6.43;5.57;;;;;;;24.78;34.16;98637.16;5087249;28;20122;-78
2022/09/04 06:58:24;;;;;;;6.43;5.40;;;;;;;24.05;35.12;98643.38;5084612;28;20059;-78
2022/09/04 07:01:10;;;;;;;7.38;5.22;;;;;;;23.79;35.81;98644.88;5080590;28;20052;-77
2022/09/04 07:04:09;;;;;;;6.22;5.55;;;;;;;24.81;33.90;98651.13;5085444;28;20499;-77
2022/09/04 07:06:45;;;;;;;7.43;5.68;;;;;;;25.04;33.71;98647.56;5088731;28;20024;-78
2022/09/04 07:09:16;;;;;;;7.63;6.43;;;;;;;23.93;35.50;98646.72;5084852;28;20044;-79
2022/09/04 07:12:03;;;;;;;7.53;6.72;;;;;;;23.85;35.55;98653.66;5084822;28;20040;-78
2022/09/04 07:14:58;;;;;;;9.32;6.85;;;;;;;23.29;36.48;98658.59;5086798;28;20035;-78
2022/09/04 07:17:43;;;;;;;9.60;7.38;;;;;;;22.99;37.20;98655.66;5086208;28;20040;-79
2022/09/04 07:20:21;;;;;;;9.07;7.45;;;;;;;23.58;36.64;98647.13;5078312;28;20032;-78
2022/09/04 07:23:08;;;;;;;8.88;6.80;;;;;;;23.93;36.11;98649.53;5081573;28;20067;-78
2022/09/04 07:25:58;;;;;;;8.02;6.30;;;;;;;24.80;34.46;98643.16;5089190;28;20032;-78
2022/09/04 07:28:50;;;;;;;8.80;7.05;;;;;;;25.15;33.34;98640.56;5086717;28;20033;-77
2022/09/04 07:31:33;;;;;;;7.57;6.25;;;;;;;25.49;33.30;98637.53;5084211;28;20036;-78
2022/09/04 07:34:21;;;;;;;8.75;6.90;;;;;;;25.67;32.69;98640.81;5080951;28;20404;-78
2022/09/04 07:37:12;;;;;;;7.35;6.53;;;;;;;25.32;34.09;98647.09;5082012;28;20044;-77
2022/09/04 07:40:00;;;;;;;7.47;5.82;;;;;;;25.27;33.84;98647.56;5082204;28;20039;-78
2022/09/04 07:42:37;;;;;;;7.95;6.80;;;;;;;25.92;33.12;98654.38;5088049;28;20032;-78
2022/09/04 07:45:24;;;;;;;6.65;5.88;;;;;;;26.22;32.73;98662.63;5082475;28;20478;-78
2022/09/04 07:48:16;;;;;;;5.25;4.75;;;;;;;27.75;30.01;98660.53;5085529;28;20047;-78
2022/09/04 07:51:03;;;;;;;6.68;5.80;;;;;;;26.30;32.24;98661.22;5079440;28;20142;-78
2022/09/04 07:53:38;;;;;;;4.75;4.35;;;;;;;26.00;33.08;98667.88;5083556;28;20403;-78
2022/09/04 07:56:43;;;;;;;6.55;5.07;;;;;;;26.15;32.46;98665.59;5082921;28;20501;-78
2022/09/04 07:59:33;;;;;;;6.22;4.18;;;;;;;27.66;30.71;98663.97;5071993;28;20507;-78
2022/09/04 08:02:22;;;;;;;4.47;3.87;;;;;;;29.64;27.77;98667.13;5079374;28;20070;-78
2022/09/04 08:05:06;;;;;;;3.67;3.33;;;;;;;30.88;25.91;98677.47;5081054;28;20274;-78
2022/09/04 08:07:32;;;;;;;3.95;3.60;;;;;;;29.20;27.71;98688.84;5086094;28;20507;-78
2022/09/04 08:10:09;;;;;;;4.10;3.42;;;;;;;28.93;28.33;98690.53;5080788;28;20031;-78
2022/09/04 08:12:55;;;;;;;3.53;3.22;;;;;;;29.21;28.37;98689.66;5079563;28;20044;-79
2022/09/04 08:15:47;;;;;;;3.30;3.00;;;;;;;28.82;28.57;98682.41;5078421;28;20036;-79
2022/09/04 08:18:55;;;;;;;3.50;3.20;;;;;;;28.66;28.74;98691.75;5076983;28;20028;-78
2022/09/04 08:21:35;;;;;;;4.00;3.60;;;;;;;28.22;29.57;98689.03;5079732;28;20036;-78
2022/09/04 08:24:17;;;;;;;3.20;2.90;;;;;;;28.45;30.04;98688.78;5076553;28;20024;-79
2022/09/04 08:27:19;;;;;;;3.20;3.00;;;;;;;27.43;31.16;98698.06;5080768;28;20032;-79
2022/09/04 08:30:05;;;;;;;3.90;3.47;;;;;;;27.58;31.02;98690.81;5079837;28;20028;-79
2022/09/04 08:32:40;;;;;;;4.78;3.58;;;;;;;27.73;30.55;98700.47;5077327;28;20043;-79
2022/09/04 08:35:09;;;;;;;4.38;3.10;;;;;;;28.27;30.58;98691.31;5081976;28;20032;-79
2022/09/04 08:37:57;;;;;;;4.07;2.65;;;;;;;28.69;29.46;98693.69;5086833;28;22483;-79
2022/09/04 08:40:41;;;;;;;3.88;3.25;;;;;;;28.23;30.81;98696.28;5081359;28;20025;-78
2022/09/04 08:43:45;;;;;;;3.30;3.00;;;;;;;27.99;30.95;98696.56;5086108;28;20047;-79
2022/09/04 08:46:43;;;;;;;3.13;2.65;;;;;;;30.04;28.60;98698.47;5082212;28;20043;-78
2022/09/04 08:49:25;;;;;;;2.53;2.33;;;;;;;31.46;26.42;98703.03;5086343;28;20394;-80
2022/09/04 08:52:10;;;;;;;3.70;3.40;;;;;;;29.71;27.75;98712.16;5078329;28;20182;-79
2022/09/04 08:55:24;;;;;;;2.65;2.45;;;;;;;30.10;27.72;98699.47;5081977;28;20097;-79
2022/09/04 08:58:22;;;;;;;2.67;1.98;;;;;;;30.67;27.56;98698.13;5079779;28;20028;-79
2022/09/04 09:01:40;;;;;;;1.90;1.80;;;;;;;31.70;26.02;98698.38;5081231;28;20040;-79
2022/09/04 09:04:46;;;;;;;2.10;1.90;;;;;;;31.93;25.52;98709.09;5068966;28;20189;-80
2022/09/04 09:07:41;;;;;;;2.03;1.67;;;;;;;32.41;24.59;98713.06;5080738;28;20032;-79
2022/09/04 09:10:36;;;;;;;2.60;1.85;;;;;;;32.60;24.44;98705.31;5077120;28;20036;-79
2022/09/04 09:13:34;;;;;;;1.55;1.45;;;;;;;31.82;24.87;98705.94;5082302;28;20044;-79
2022/09/04 09:16:41;;;;;;;1.70;1.60;;;;;;;31.14;25.83;98709.25;5078319;28;20632;-79
2022/09/04 09:19:18;;;;;;;1.55;1.45;;;;;;;32.26;26.00;98714.16;5079561;28;20495;-80
2022/09/04 09:22:01;;;;;;;1.50;1.40;;;;;;;31.30;26.15;98711.81;5077594;28;20067;-80
2022/09/04 09:25:19;;;;;;;1.67;1.58;;;;;;;30.19;27.51;98727.88;5087199;28;20028;-80
2022/09/04 09:28:06;;;;;;;1.60;1.50;;;;;;;30.27;27.25;98722.75;5029456;28;20057;-80
2022/09/04 09:31:09;;;;;;;1.63;1.27;;;;;;;31.15;26.95;98714.47;5077826;28;20044;-80
2022/09/04 09:33:38;;;;;;;1.70;1.40;;;;;;;32.43;25.46;98732.47;5083869;28;20039;-80
2022/09/04 09:36:46;;;;;;;1.30;1.20;;;;;;;32.62;24.33;98734.84;5085441;28;20098;-80
2022/09/04 09:39:32;;;;;;;1.80;1.20;;;;;;;31.98;25.28;98736.13;5086387;28;20055;-79
2022/09/04 09:41:59;;;;;;;1.48;1.38;;;;;;;31.82;25.45;98742.09;5090558;28;20044;-80
2022/09/04 09:44:43;;;;;;;1.20;1.10;;;;;;;31.45;26.10;98746.09;5085303;28;20476;-79
2022/09/04 09:47:27;;;;;;;1.40;1.30;;;;;;;31.65;25.90;98750.09;5085785;28;20396;-80
2022/09/04 09:50:24;;;;;;;1.85;1.60;;;;;;;29.86;28.44;98758.59;5085612;28;20044;-79
2022/09/04 09:53:27;;;;;;;2.30;1.83;;;;;;;29.07;29.65;98750.25;5086693;28;20380;-79
2022/09/04 09:56:37;;;;;;;2.13;1.73;;;;;;;27.56;31.96;98760.19;5085397;28;20464;-80
2022/09/04 09:59:25;;;;;;;2.70;2.50;;;;;;;28.30;31.35;98752.56;5085581;28;20035;-79
2022/09/04 10:02:17;;;;;;;3.60;2.30;;;;;;;28.48;30.88;98750.81;5085356;28;20047;-80
2022/09/04 10:05:01;;;;;;;2.90;2.50;;;;;;;28.38;30.89;98751.16;5089447;28;20032;-79
2022/09/04 10:07:28;;;;;;;2.25;2.03;;;;;;;29.36;29.71;98761.47;5084972;28;20033;-79
2022/09/04 10:10:32;;;;;;;3.38;2.40;;;;;;;27.86;31.47;98752.16;5086948;28;20491;-80
2022/09/04 10:13:28;;;;;;;2.50;2.30;;;;;;;28.09;31.12;98759.63;5085065;28;20115;-80
2022/09/04 10:16:34;;;;;;;2.90;2.60;;;;;;;27.53;32.56;98753.41;5080615;28;20046;-80
2022/09/04 10:19:21;;;;;;;3.15;2.80;;;;;;;28.44;31.27;98772.75;5081813;28;20041;-80
2022/09/04 10:21:56;;;;;;;2.75;2.55;;;;;;;28.54;30.81;98765.19;5080200;28;20043;-80
2022/09/04 10:25:03;;;;;;;2.22;2.03;;;;;;;28.52;30.88;98762.03;5080405;28;20039;-79
2022/09/04 10:28:17;;;;;;;2.72;2.42;;;;;;;29.34;29.38;98759.09;5051099;28;20040;-79
2022/09/04 10:31:04;;;;;;;3.03;2.80;;;;;;;28.97;30.06;98764.72;5086882;28;20056;-80
2022/09/04 10:34:09;;;;;;;2.20;2.00;;;;;;;30.21;28.37;98765.03;5087946;28;20035;-79
2022/09/04 10:37:26;;;;;;;2.10;1.92;;;;;;;30.53;27.93;98761.84;5087987;28;20487;-79
2022/09/04 10:42:57;;;;;;;1.88;1.73;;;;;;;31.70;27.03;98765.72;5088252;28;20093;-80
2022/09/04 10:45:44;;;;;;;1.77;1.67;;;;;;;32.72;25.03;98767.69;5088658;28;20373;-79
2022/09/04 10:48:48;;;;;;;2.40;1.90;;;;;;;31.99;25.85;98768.97;5084214;28;20437;-80
2022/09/04 10:51:55;;;;;;;1.73;1.60;;;;;;;32.59;25.11;98764.25;5085257;28;20041;-80
2022/09/04 10:54:47;;;;;;;1.42;1.33;;;;;;;33.59;24.25;98763.94;5088773;28;20037;-81
2022/09/04 10:57:23;;;;;;;1.20;1.10;;;;;;;34.13;23.91;98771.34;5055369;28;20139;-81
2022/09/04 11:00:02;;;;;;;2.25;1.35;;;;;;;34.64;23.33;98769.03;5084234;28;20619;-81
2022/09/04 11:02:36;;;;;;;1.30;1.20;;;;;;;35.22;22.41;98767.44;5088893;28;20540;-80
2022/09/04 11:05:19;;;;;;;1.08;1.00;;;;;;;35.17;22.06;98771.03;5087836;28;20054;-81
2022/09/04 11:08:00;;;;;;;1.95;1.00;;;;;;;35.36;22.58;98775.22;5085901;28;20035;-81
2022/09/04 11:10:52;;;;;;;4.07;1.50;;;;;;;34.22;23.04;98784.75;5084921;28;20131;-81
2022/09/04 11:13:48;;;;;;;1.08;1.08;;;;;;;33.88;23.86;98786.06;5085992;28;20052;-81
2022/09/04 11:16:56;;;;;;;1.55;1.17;;;;;;;33.10;25.10;98777.72;5087186;28;20032;-81
2022/09/04 11:19:45;;;;;;;1.63;1.27;;;;;;;33.02;25.58;98776.50;5085668;28;20033;-81
2022/09/04 11:22:45;;;;;;;1.58;1.13;;;;;;;33.72;24.96;98773.06;5082728;28;20085;-82
2022/09/04 11:25:44;;;;;;;1.20;1.10;;;;;;;33.58;24.44;98772.97;5084502;28;20602;-82
2022/09/04 11:28:29;;;;;;;1.52;1.00;;;;;;;33.35;25.13;98765.94;5086831;28;20040;-81
2022/09/04 11:31:00;;;;;;;1.27;0.80;;;;;;;33.82;24.36;98783.09;5087685;28;20035;-81
2022/09/04 11:33:38;;;;;;;2.92;1.40;;;;;;;32.96;24.52;98784.06;5088764;28;20035;-81
2022/09/04 11:36:51;;;;;;;2.00;1.27;;;;;;;33.14;24.45;98778.38;5086232;28;20097;-81
2022/09/04 11:39:36;;;;;;;1.13;1.02;;;;;;;33.64;24.43;98791.75;5025160;28;20041;-81
2022/09/04 11:42:16;;;;;;;1.00;1.00;;;;;;;34.07;24.12;98793.25;5085706;28;20036;-81
2022/09/04 11:44:57;;;;;;;1.48;1.35;;;;;;;34.04;24.20;98782.81;5084174;28;20044;-82
2022/09/04 11:47:53;;;;;;;1.40;1.10;;;;;;;33.21;24.72;98786.56;5086661;28;20032;-81
2022/09/04 11:50:28;;;;;;;1.15;1.05;;;;;;;32.50;25.91;98780.53;5085900;28;20044;-81
2022/09/04 11:53:20;;;;;;;1.10;1.00;;;;;;;33.01;25.21;98775.72;5082454;28;20089;-81
2022/09/04 11:56:05;;;;;;;1.13;1.00;;;;;;;33.63;24.70;98775.16;5080983;28;20036;-82
2022/09/04 11:59:03;;;;;;;0.95;0.95;;;;;;;34.36;23.69;98773.38;5086317;28;20534;-82
2022/09/04 12:01:42;;;;;;;0.80;0.80;;;;;;;35.01;22.76;98777.97;5086998;28;20036;-79
2022/09/04 12:04:27;;;;;;;1.00;0.90;;;;;;;35.35;23.22;98770.78;5081643;28;20038;-81
2022/09/04 12:07:16;;;;;;;0.90;0.90;;;;;;;34.97;23.32;98776.59;5087923;28;20032;-81
2022/09/04 12:10:07;;;;;;;1.05;0.90;;;;;;;35.62;23.82;98776.16;5084194;28;20038;-80
2022/09/04 12:13:03;;;;;;;1.05;0.90;;;;;;;36.26;22.69;98781.75;5088927;28;20513;-83
2022/09/04 12:15:37;;;;;;;1.08;0.80;;;;;;;36.62;22.13;98772.53;5081610;28;20053;-81
2022/09/04 12:18:40;;;;;;;0.80;0.80;;;;;;;36.24;22.01;98772.09;5080818;28;20028;-81
2022/09/04 12:21:16;;;;;;;1.15;0.90;;;;;;;35.53;22.95;98776.28;5081727;28;20032;-81
2022/09/04 12:24:01;;;;;;;0.90;0.80;;;;;;;35.85;22.98;98769.47;5081085;28;20499;-81
2022/09/04 12:27:00;;;;;;;0.90;0.90;;;;;;;36.11;22.69;98777.41;5083321;28;20034;-81
2022/09/04 12:29:29;;;;;;;1.10;1.00;;;;;;;36.43;21.87;98776.97;5081481;28;20024;-80
2022/09/04 12:32:24;;;;;;;0.90;0.70;;;;;;;36.19;21.95;98772.81;5081761;28;20036;-81
2022/09/04 12:35:32;;;;;;;1.30;1.20;;;;;;;36.02;21.85;98769.72;5087772;28;20032;-81
2022/09/04 12:38:16;;;;;;;1.20;1.10;;;;;;;36.16;22.09;98776.66;5083275;28;20103;-81
2022/09/04 12:40:54;;;;;;;1.10;1.00;;;;;;;36.39;22.36;98772.78;5084107;28;20035;-81
2022/09/04 12:43:50;;;;;;;1.30;1.00;;;;;;;36.12;21.59;98782.59;5084718;28;20119;-81
2022/09/04 12:46:47;;;;;;;2.45;1.42;;;;;;;35.42;22.19;98785.47;5081107;28;20040;-81
2022/09/04 12:49:37;;;;;;;1.38;1.10;;;;;;;35.23;22.41;98789.03;5079834;28;20036;-81
2022/09/04 12:52:44;;;;;;;1.50;1.17;;;;;;;35.30;23.12;98775.13;5080938;28;20139;-81
2022/09/04 12:55:44;;;;;;;1.30;1.20;;;;;;;35.61;22.49;98776.66;5058619;28;20101;-80
2022/09/04 12:58:47;;;;;;;1.95;1.30;;;;;;;35.83;22.23;98777.75;5064615;28;20040;-80
2022/09/04 13:01:45;;;;;;;1.10;1.00;;;;;;;36.08;22.12;98779.19;5082222;28;20040;-80
2022/09/04 13:04:24;;;;;;;1.25;1.15;;;;;;;36.19;22.27;98778.53;5082245;28;20082;-81
2022/09/04 13:07:28;;;;;;;1.10;1.00;;;;;;;36.19;22.32;98778.53;5083660;28;20086;-80
2022/09/04 13:10:36;;;;;;;1.90;1.17;;;;;;;36.08;22.33;98770.59;5064410;28;20052;-80
2022/09/04 13:13:22;;;;;;;1.90;1.15;;;;;;;36.01;22.43;98777.50;5082815;28;20041;-80
2022/09/04 13:15:59;;;;;;;1.17;1.08;;;;;;;36.01;22.42;98777.50;5080757;28;20032;-79
2022/09/04 13:18:57;;;;;;;1.45;1.02;;;;;;;36.06;22.57;98771.09;5083516;28;20040;-79